Time;durP1;ratioP1;P1;durP2;ratioP2;P2;SDS_P1;SDS_P2;PMS_P1;PMS_P2;Temp;Humidity;BMP_temperature;BMP_pressure;BME280_temperature;BME280_humidity;BME280_pressure;Samples;Min_cycle;Max_cycle;Signal;HPM_P1;HPM_P2
2023/05/07 00:02:03;;;;;;;6.20;3.50;;;15.80;75.20;;;;;;5071533;28;20184;-77
2023/05/07 00:04:35;;;;;;;4.90;3.53;;;15.80;74.90;;;;;;5072326;28;20188;-76
2023/05/07 00:07:01;;;;;;;4.47;3.30;;;15.80;74.90;;;;;;5061812;28;20818;-77
2023/05/07 00:09:27;;;;;;;4.43;3.40;;;15.80;75.10;;;;;;5051256;28;20474;-77
2023/05/07 00:11:52;;;;;;;6.13;3.73;;;15.80;75.10;;;;;;5053821;28;20172;-78
2023/05/07 00:14:18;;;;;;;5.47;3.30;;;15.80;74.90;;;;;;5052709;28;20433;-77
2023/05/07 00:16:44;;;;;;;7.40;4.17;;;15.80;74.90;;;;;;5053206;28;20187;-77
2023/05/07 00:19:10;;;;;;;8.73;4.07;;;15.80;75.20;;;;;;5031019;28;20184;-76
2023/05/07 00:21:35;;;;;;;5.63;3.50;;;15.70;75.50;;;;;;5033819;28;20203;-78
2023/05/07 00:24:01;;;;;;;4.40;3.23;;;15.70;75.50;;;;;;5048730;28;20299;-76
2023/05/07 00:26:27;;;;;;;5.53;3.30;;;15.60;75.80;;;;;;5032936;28;20206;-75
2023/05/07 00:28:52;;;;;;;5.80;3.77;;;15.60;75.90;;;;;;5052047;28;20237;-76
2023/05/07 00:31:18;;;;;;;5.73;3.30;;;15.70;75.80;;;;;;5048738;28;20211;-77
2023/05/07 00:33:43;;;;;;;8.30;4.20;;;15.60;75.80;;;;;;5050590;28;20197;-77
2023/05/07 00:36:09;;;;;;;6.10;4.20;;;15.50;76.20;;;;;;5051772;28;20187;-77
2023/05/07 00:38:35;;;;;;;5.90;4.10;;;15.50;76.20;;;;;;5051184;28;20191;-77
2023/05/07 00:41:02;;;;;;;5.57;4.07;;;15.50;76.40;;;;;;5031943;28;20208;-77
2023/05/07 00:43:27;;;;;;;5.93;3.97;;;15.40;76.70;;;;;;5051728;28;20764;-77
2023/05/07 00:45:53;;;;;;;6.50;3.97;;;15.40;76.70;;;;;;5030407;28;20511;-77
2023/05/07 00:48:19;;;;;;;4.63;3.40;;;15.40;77.00;;;;;;5050173;28;20453;-78
2023/05/07 00:50:46;;;;;;;4.60;3.70;;;15.40;77.00;;;;;;5048597;28;20455;-76
2023/05/07 00:53:12;;;;;;;6.10;4.00;;;15.40;76.70;;;;;;5052021;28;20553;-77
2023/05/07 00:55:38;;;;;;;5.27;3.10;;;15.30;76.80;;;;;;5033382;28;20930;-76
2023/05/07 00:58:05;;;;;;;5.00;3.30;;;15.30;77.00;;;;;;5051974;28;20494;-76
2023/05/07 01:00:31;;;;;;;5.97;3.53;;;15.30;77.10;;;;;;5050039;28;20519;-77
2023/05/07 01:02:57;;;;;;;6.90;3.93;;;15.20;77.00;;;;;;5052589;28;20458;-77
2023/05/07 01:05:24;;;;;;;6.23;3.67;;;15.20;77.10;;;;;;5052367;28;20267;-77
2023/05/07 01:07:50;;;;;;;4.40;3.83;;;15.20;77.30;;;;;;5049949;28;20415;-78
2023/05/07 01:10:17;;;;;;;5.50;4.30;;;15.20;77.30;;;;;;5049821;28;20461;-78
2023/05/07 01:12:44;;;;;;;9.20;4.50;;;15.20;77.80;;;;;;5033592;28;20804;-77
2023/05/07 01:15:10;;;;;;;6.93;4.30;;;15.10;78.00;;;;;;5041241;28;20420;-77
2023/05/07 01:17:37;;;;;;;7.80;5.10;;;15.20;78.00;;;;;;5053656;28;20570;-77
2023/05/07 01:20:05;;;;;;;27.43;5.33;;;15.10;78.40;;;;;;5052151;28;20557;-76
2023/05/07 01:22:36;;;;;;;7.53;4.90;;;14.90;79.30;;;;;;5054926;28;20456;-76
2023/05/07 01:25:02;;;;;;;7.50;5.67;;;14.70;79.70;;;;;;5047191;28;20424;-78
2023/05/07 01:27:28;;;;;;;7.40;5.20;;;14.60;80.00;;;;;;5052920;28;20412;-76
2023/05/07 01:29:55;;;;;;;7.53;4.60;;;14.60;80.50;;;;;;5055439;28;20448;-75
2023/05/07 01:32:35;;;;;;;6.20;4.50;;;14.60;80.50;;;;;;5054143;28;20270;-75
2023/05/07 01:35:04;;;;;;;6.67;4.70;;;14.60;80.30;;;;;;5046398;28;20435;-76
2023/05/07 01:37:30;;;;;;;7.97;4.73;;;14.60;80.80;;;;;;5034575;28;20420;-77
2023/05/07 01:39:57;;;;;;;5.80;4.20;;;14.50;80.80;;;;;;5034094;28;20453;-77
2023/05/07 01:42:23;;;;;;;5.63;3.90;;;14.60;80.80;;;;;;5035480;28;20209;-76
2023/05/07 01:44:49;;;;;;;10.20;5.00;;;14.60;80.50;;;;;;5040293;28;20436;-76
2023/05/07 01:47:15;;;;;;;7.03;5.00;;;14.50;80.30;;;;;;5049968;28;20423;-76
2023/05/07 01:49:42;;;;;;;13.00;5.17;;;14.60;80.30;;;;;;5049846;28;20241;-75
2023/05/07 01:52:09;;;;;;;6.07;4.00;;;14.60;80.30;;;;;;5056598;28;20417;-76
2023/05/07 01:54:35;;;;;;;6.97;4.53;;;14.60;80.20;;;;;;5051209;28;20503;-75
2023/05/07 01:57:01;;;;;;;13.00;4.90;;;14.60;80.30;;;;;;5060638;28;20460;-75
2023/05/07 01:59:27;;;;;;;8.07;4.57;;;14.60;80.50;;;;;;5063635;28;20213;-78
2023/05/07 02:01:52;;;;;;;12.27;5.53;;;14.60;80.30;;;;;;5063341;28;20552;-78
2023/05/07 02:04:18;;;;;;;8.13;3.90;;;14.60;80.20;;;;;;5070283;28;20241;-75
2023/05/07 02:06:44;;;;;;;5.10;4.20;;;14.70;80.00;;;;;;5079484;28;20176;-76
2023/05/07 02:09:10;;;;;;;5.87;4.23;;;14.70;79.70;;;;;;5079058;28;20182;-75
2023/05/07 02:11:35;;;;;;;6.03;3.43;;;14.70;79.70;;;;;;5078011;28;20200;-75
2023/05/07 02:14:01;;;;;;;5.73;4.10;;;14.70;79.60;;;;;;5062336;28;20450;-76
2023/05/07 02:16:26;;;;;;;5.80;4.30;;;14.70;79.60;;;;;;5047446;28;20187;-79
2023/05/07 02:18:52;;;;;;;7.43;4.80;;;14.70;79.60;;;;;;5057394;28;20190;-77
2023/05/07 02:21:18;;;;;;;7.47;4.70;;;14.70;79.60;;;;;;5068415;28;20573;-75
2023/05/07 02:23:43;;;;;;;5.13;4.13;;;14.70;79.50;;;;;;5051740;28;20279;-77
2023/05/07 02:26:10;;;;;;;6.23;4.63;;;14.70;79.70;;;;;;5044779;28;20202;-77
2023/05/07 02:28:36;;;;;;;7.97;5.30;;;14.80;79.60;;;;;;5060776;28;20190;-79
2023/05/07 02:31:05;;;;;;;8.13;4.77;;;14.70;79.50;;;;;;5043083;28;20462;-78
2023/05/07 02:33:31;;;;;;;7.80;4.73;;;14.70;79.90;;;;;;5048524;28;20184;-78
2023/05/07 02:35:56;;;;;;;7.03;5.10;;;14.50;80.20;;;;;;5041572;28;20434;-78
2023/05/07 02:38:23;;;;;;;6.20;4.60;;;14.40;80.50;;;;;;5038948;28;20184;-79
2023/05/07 02:40:48;;;;;;;6.90;4.00;;;14.30;81.40;;;;;;5054351;28;20201;-77
2023/05/07 02:43:14;;;;;;;6.10;4.20;;;14.30;81.40;;;;;;5037414;28;20892;-78
2023/05/07 02:45:40;;;;;;;12.43;4.60;;;14.20;81.50;;;;;;5038801;28;20209;-76
2023/05/07 02:48:06;;;;;;;7.63;5.00;;;14.30;81.50;;;;;;5057535;28;20199;-79
2023/05/07 02:50:32;;;;;;;9.07;5.20;;;14.30;81.40;;;;;;5066805;28;20185;-78
2023/05/07 02:52:58;;;;;;;11.60;5.10;;;14.30;81.20;;;;;;5073889;28;20813;-77
2023/05/07 02:55:23;;;;;;;11.63;5.10;;;14.20;81.80;;;;;;5054081;28;20435;-78
2023/05/07 02:57:49;;;;;;;7.73;4.53;;;14.20;81.90;;;;;;5070823;28;20189;-76
2023/05/07 03:00:17;;;;;;;8.17;5.10;;;14.20;82.10;;;;;;5048962;28;20561;-77
2023/05/07 03:02:46;;;;;;;9.13;4.60;;;14.20;81.90;;;;;;5065670;28;20201;-77
2023/05/07 03:05:12;;;;;;;7.00;4.83;;;14.20;82.10;;;;;;5049025;28;20492;-75
2023/05/07 03:07:38;;;;;;;10.37;5.60;;;14.00;82.70;;;;;;5059880;28;20515;-77
2023/05/07 03:10:05;;;;;;;8.27;5.10;;;13.80;83.60;;;;;;5053367;28;20930;-77
2023/05/07 03:12:31;;;;;;;8.67;5.33;;;13.70;84.00;;;;;;5063084;28;20248;-79
2023/05/07 03:14:56;;;;;;;7.97;4.93;;;13.70;84.10;;;;;;5056907;28;20426;-80
2023/05/07 03:17:22;;;;;;;8.27;5.47;;;13.60;84.60;;;;;;5038904;28;20432;-78
2023/05/07 03:19:48;;;;;;;8.67;4.53;;;13.60;84.90;;;;;;5036767;28;20296;-80
2023/05/07 03:22:14;;;;;;;5.90;4.17;;;13.60;84.70;;;;;;5057512;28;20308;-79
2023/05/07 03:24:39;;;;;;;6.57;4.00;;;13.60;84.40;;;;;;5057169;28;20604;-78
2023/05/07 03:27:05;;;;;;;4.83;4.30;;;13.60;84.10;;;;;;5057438;28;20451;-77
2023/05/07 03:29:31;;;;;;;7.47;4.57;;;13.60;83.80;;;;;;5037465;28;20201;-77
2023/05/07 03:31:56;;;;;;;7.80;5.50;;;13.70;83.80;;;;;;5056391;28;20272;-79
2023/05/07 03:34:22;;;;;;;9.20;5.30;;;13.80;83.60;;;;;;5057659;28;20180;-78
2023/05/07 03:36:51;;;;;;;6.03;4.20;;;13.70;83.30;;;;;;5039865;28;20196;-75
2023/05/07 03:39:16;;;;;;;7.30;4.60;;;13.60;83.70;;;;;;5056811;28;20188;-75
2023/05/07 03:41:42;;;;;;;11.00;5.13;;;13.60;84.00;;;;;;5039298;28;20443;-77
2023/05/07 03:44:08;;;;;;;8.50;4.97;;;13.60;84.00;;;;;;5057492;28;20212;-78
2023/05/07 03:46:34;;;;;;;8.43;4.47;;;13.50;84.40;;;;;;5054178;28;20185;-79
2023/05/07 03:49:00;;;;;;;9.33;5.00;;;13.60;84.40;;;;;;5054094;28;20185;-76
2023/05/07 03:51:25;;;;;;;6.97;4.20;;;13.60;84.30;;;;;;5051901;28;20459;-79
2023/05/07 03:53:54;;;;;;;5.03;4.00;;;13.60;84.00;;;;;;5054524;28;20852;-79
2023/05/07 03:56:20;;;;;;;5.03;3.63;;;13.60;84.00;;;;;;5057325;28;20196;-77
2023/05/07 03:58:47;;;;;;;5.37;3.93;;;13.50;83.80;;;;;;5035960;28;20492;-77
2023/05/07 04:01:12;;;;;;;6.33;3.70;;;13.60;83.40;;;;;;5034157;28;20462;-77
2023/05/07 04:03:38;;;;;;;4.73;3.67;;;13.60;83.00;;;;;;5036730;28;21000;-76
2023/05/07 04:06:04;;;;;;;8.07;4.40;;;13.60;82.80;;;;;;5036483;28;20188;-77
2023/05/07 04:08:29;;;;;;;8.90;5.20;;;13.70;82.70;;;;;;5054089;28;20185;-77
2023/05/07 04:10:58;;;;;;;6.57;5.23;;;13.70;82.70;;;;;;5034035;28;20208;-78
2023/05/07 04:13:25;;;;;;;7.57;4.97;;;13.70;83.00;;;;;;5037106;28;20235;-78
2023/05/07 04:15:51;;;;;;;8.20;5.27;;;13.70;83.30;;;;;;5053816;28;20438;-78
2023/05/07 04:18:17;;;;;;;8.97;5.40;;;13.60;83.40;;;;;;5054343;28;20433;-78
2023/05/07 04:20:43;;;;;;;6.43;4.77;;;13.60;83.80;;;;;;5051697;28;20538;-76
2023/05/07 04:23:08;;;;;;;8.90;5.23;;;13.50;84.40;;;;;;5054664;28;20201;-80
2023/05/07 04:25:34;;;;;;;9.57;4.93;;;13.50;84.60;;;;;;5044213;28;20189;-80
2023/05/07 04:28:00;;;;;;;6.97;5.30;;;13.50;84.30;;;;;;5055124;28;20181;-78
2023/05/07 04:30:25;;;;;;;6.70;4.70;;;13.50;84.60;;;;;;5052957;28;20320;-79
2023/05/07 04:32:52;;;;;;;5.07;3.57;;;13.50;84.70;;;;;;5037770;28;20228;-76
2023/05/07 04:35:18;;;;;;;5.73;3.83;;;13.60;84.40;;;;;;5054312;28;20782;-77
2023/05/07 04:37:44;;;;;;;6.67;4.07;;;13.60;83.80;;;;;;5054621;28;20426;-76
2023/05/07 04:40:10;;;;;;;4.97;3.63;;;13.60;83.30;;;;;;5051382;28;20812;-75
2023/05/07 04:42:35;;;;;;;6.47;4.27;;;13.70;82.80;;;;;;5037228;28;20261;-79
2023/05/07 04:45:02;;;;;;;7.13;4.30;;;13.70;83.10;;;;;;5035811;28;20195;-78
2023/05/07 04:47:27;;;;;;;6.80;4.40;;;13.70;83.00;;;;;;5054216;28;20189;-77
2023/05/07 04:49:53;;;;;;;6.23;4.00;;;13.80;82.80;;;;;;5033709;28;20466;-78
2023/05/07 04:52:19;;;;;;;8.30;5.23;;;13.80;82.80;;;;;;5036486;28;20199;-75
2023/05/07 04:54:44;;;;;;;7.80;4.27;;;13.80;82.70;;;;;;5036665;28;20181;-78
2023/05/07 04:57:10;;;;;;;7.30;5.40;;;13.90;82.70;;;;;;5054033;28;20248;-79
2023/05/07 04:59:36;;;;;;;10.07;5.50;;;14.00;82.70;;;;;;5050576;28;20223;-78
2023/05/07 05:02:01;;;;;;;7.53;5.40;;;14.00;82.50;;;;;;5054825;28;20189;-77
2023/05/07 05:04:27;;;;;;;8.73;5.00;;;14.00;82.50;;;;;;5054895;28;20206;-78
2023/05/07 05:06:53;;;;;;;6.90;4.50;;;13.90;82.80;;;;;;5054867;28;20178;-79
2023/05/07 05:09:18;;;;;;;8.00;4.33;;;14.00;82.40;;;;;;5054385;28;20193;-77
2023/05/07 05:11:44;;;;;;;6.10;4.80;;;14.00;82.20;;;;;;5038770;28;20181;-77
2023/05/07 05:14:10;;;;;;;10.53;5.07;;;14.10;82.10;;;;;;5039990;28;20185;-76
2023/05/07 05:16:35;;;;;;;6.80;5.10;;;14.10;81.90;;;;;;5058904;28;20511;-78
2023/05/07 05:19:01;;;;;;;6.70;4.63;;;14.00;81.80;;;;;;5058236;28;20246;-78
2023/05/07 05:21:27;;;;;;;5.90;4.13;;;14.10;81.90;;;;;;5060111;28;20215;-78
2023/05/07 05:23:53;;;;;;;6.70;4.10;;;14.10;81.80;;;;;;5062527;28;20460;-76
2023/05/07 05:26:18;;;;;;;5.90;3.90;;;14.20;81.50;;;;;;5061738;28;20184;-78
2023/05/07 05:28:44;;;;;;;7.20;4.57;;;14.30;81.20;;;;;;5062065;28;20186;-77
2023/05/07 05:31:10;;;;;;;9.13;5.10;;;14.30;81.10;;;;;;5055323;28;20209;-76
2023/05/07 05:33:36;;;;;;;6.83;4.80;;;14.40;81.20;;;;;;5034868;28;20440;-78
2023/05/07 05:36:01;;;;;;;9.70;5.77;;;14.40;81.20;;;;;;5052660;28;20197;-79
2023/05/07 05:38:27;;;;;;;8.13;5.13;;;14.30;81.50;;;;;;5052797;28;20248;-79
2023/05/07 05:40:52;;;;;;;7.30;5.50;;;14.20;81.80;;;;;;5048613;28;20235;-79
2023/05/07 05:43:18;;;;;;;10.70;5.60;;;14.20;82.20;;;;;;4993238;28;1166381;-76
2023/05/07 05:45:44;;;;;;;9.07;5.27;;;14.40;82.10;;;;;;5052461;28;20191;-80
2023/05/07 05:48:09;;;;;;;8.20;4.73;;;14.60;80.20;;;;;;5052940;28;20181;-78
2023/05/07 05:50:38;;;;;;;9.37;5.37;;;14.50;80.00;;;;;;5049267;28;20216;-77
2023/05/07 05:53:04;;;;;;;7.93;5.83;;;14.50;80.30;;;;;;5055006;28;20192;-79
2023/05/07 05:55:32;;;;;;;13.20;5.57;;;14.50;80.60;;;;;;5036900;28;20829;-78
2023/05/07 05:57:58;;;;;;;9.00;5.57;;;14.50;80.80;;;;;;5037809;28;20419;-78
2023/05/07 06:00:23;;;;;;;11.77;7.47;;;14.50;81.10;;;;;;5051213;28;20973;-78
2023/05/07 06:02:49;;;;;;;10.20;5.33;;;14.50;80.90;;;;;;5034406;28;20551;-77
2023/05/07 06:05:15;;;;;;;9.47;6.77;;;14.70;80.80;;;;;;5052996;28;20179;-79
2023/05/07 06:07:41;;;;;;;10.60;7.20;;;14.80;80.50;;;;;;5055398;28;20213;-78
2023/05/07 06:10:07;;;;;;;12.30;7.60;;;14.90;79.70;;;;;;5055674;28;20207;-77
2023/05/07 06:12:32;;;;;;;11.23;6.80;;;14.90;79.50;;;;;;5058700;28;20204;-79
2023/05/07 06:14:58;;;;;;;11.10;7.20;;;15.10;79.30;;;;;;5058910;28;20428;-80
2023/05/07 06:17:24;;;;;;;10.17;7.07;;;15.30;78.60;;;;;;5055460;28;20554;-79
2023/05/07 06:19:49;;;;;;;12.00;8.03;;;15.40;78.00;;;;;;5033182;28;20214;-78
2023/05/07 06:22:15;;;;;;;10.83;7.33;;;15.50;77.60;;;;;;5052297;28;20188;-76
2023/05/07 06:24:40;;;;;;;10.13;6.70;;;15.60;76.80;;;;;;5048292;28;20624;-77
2023/05/07 06:27:06;;;;;;;10.43;7.07;;;15.70;76.20;;;;;;5050396;28;20215;-77
2023/05/07 06:29:33;;;;;;;10.37;6.77;;;15.80;76.20;;;;;;5048475;28;20199;-76
2023/05/07 06:32:12;;;;;;;7.93;6.13;;;15.80;76.20;;;;;;5047281;28;20180;-77
2023/05/07 06:34:39;;;;;;;12.57;7.20;;;15.80;76.50;;;;;;5032573;28;20431;-76
2023/05/07 06:37:05;;;;;;;9.67;6.33;;;15.90;76.80;;;;;;5052042;28;20422;-77
2023/05/07 06:39:31;;;;;;;9.87;6.57;;;15.90;76.80;;;;;;5030828;28;20442;-78
2023/05/07 06:41:57;;;;;;;10.30;6.90;;;15.80;76.80;;;;;;5033215;28;20414;-76
2023/05/07 06:44:23;;;;;;;14.43;8.57;;;15.90;77.00;;;;;;5051796;28;20269;-76
2023/05/07 06:46:48;;;;;;;10.80;6.70;;;16.00;76.50;;;;;;5036405;28;20435;-76
2023/05/07 06:49:15;;;;;;;10.50;7.20;;;16.00;76.80;;;;;;5053594;28;20207;-75
2023/05/07 06:51:41;;;;;;;14.93;8.57;;;16.00;77.30;;;;;;5050703;28;20294;-77
2023/05/07 06:54:06;;;;;;;12.10;8.00;;;15.90;77.80;;;;;;5053770;28;20775;-77
2023/05/07 06:56:33;;;;;;;14.80;9.57;;;15.70;78.60;;;;;;5053921;28;20528;-76
2023/05/07 06:59:00;;;;;;;12.87;9.13;;;15.70;78.60;;;;;;5035646;28;20184;-76
2023/05/07 07:01:26;;;;;;;11.33;8.50;;;15.60;79.00;;;;;;5052425;28;20563;-77
2023/05/07 07:03:51;;;;;;;16.80;8.67;;;15.60;79.60;;;;;;5053536;28;21174;-76
2023/05/07 07:06:17;;;;;;;11.63;8.33;;;15.70;79.20;;;;;;5053620;28;20561;-76
2023/05/07 07:08:43;;;;;;;12.47;8.33;;;15.90;79.00;;;;;;5052930;28;20194;-77
2023/05/07 07:11:09;;;;;;;14.40;8.30;;;15.90;78.40;;;;;;5049680;28;20246;-77
2023/05/07 07:13:35;;;;;;;12.30;7.70;;;16.10;78.00;;;;;;5054295;28;20184;-75
2023/05/07 07:16:00;;;;;;;10.20;7.53;;;16.30;77.70;;;;;;5054115;28;20541;-76
2023/05/07 07:18:26;;;;;;;11.90;7.80;;;16.50;77.00;;;;;;5054422;28;20195;-77
2023/05/07 07:20:52;;;;;;;14.60;7.90;;;16.50;75.90;;;;;;5054393;28;20292;-75
2023/05/07 07:23:17;;;;;;;13.03;7.93;;;16.50;76.40;;;;;;5055324;28;20205;-75
2023/05/07 07:25:43;;;;;;;11.93;8.50;;;16.70;75.80;;;;;;5054843;28;20183;-76
2023/05/07 07:28:08;;;;;;;11.33;8.17;;;16.80;75.50;;;;;;5053969;28;20188;-76
2023/05/07 07:30:34;;;;;;;9.33;7.53;;;16.90;74.80;;;;;;5045697;28;20213;-78
2023/05/07 07:33:02;;;;;;;11.73;8.17;;;17.00;74.60;;;;;;5053786;28;20189;-76
2023/05/07 07:35:33;;;;;;;12.50;7.80;;;17.20;73.90;;;;;;5053405;28;20177;-77
2023/05/07 07:37:59;;;;;;;14.53;7.13;;;17.40;73.60;;;;;;5053111;28;20420;-76
2023/05/07 07:40:25;;;;;;;12.60;7.70;;;17.80;72.10;;;;;;5031816;28;20458;-75
2023/05/07 07:42:51;;;;;;;12.20;6.50;;;17.80;71.70;;;;;;5053552;28;20212;-76
2023/05/07 07:45:17;;;;;;;13.33;7.73;;;17.90;71.70;;;;;;5052612;28;20522;-76
2023/05/07 07:47:42;;;;;;;9.60;6.77;;;18.20;71.70;;;;;;5052641;28;20420;-76
2023/05/07 07:50:09;;;;;;;9.47;6.40;;;18.60;70.10;;;;;;5047552;28;20585;-76
2023/05/07 07:52:34;;;;;;;13.33;6.90;;;18.80;69.10;;;;;;5052495;28;20196;-77
2023/05/07 07:55:00;;;;;;;9.90;6.73;;;19.00;69.10;;;;;;5051816;28;20912;-77
2023/05/07 07:57:26;;;;;;;9.20;6.53;;;19.00;68.80;;;;;;5050015;28;20663;-76
2023/05/07 07:59:51;;;;;;;10.77;6.57;;;19.00;68.80;;;;;;5051268;28;20201;-76
2023/05/07 08:02:17;;;;;;;7.77;5.60;;;19.00;68.30;;;;;;5052646;28;20267;-76
2023/05/07 08:04:44;;;;;;;8.97;6.43;;;19.20;68.30;;;;;;5052919;28;20233;-77
2023/05/07 08:07:10;;;;;;;8.30;6.00;;;19.30;67.60;;;;;;5054266;28;20441;-76
2023/05/07 08:09:37;;;;;;;11.03;5.73;;;19.60;67.60;;;;;;5031465;28;20474;-76
2023/05/07 08:12:03;;;;;;;8.50;6.10;;;19.70;67.20;;;;;;5050213;28;20470;-76
2023/05/07 08:14:28;;;;;;;7.30;5.23;;;19.60;66.60;;;;;;5049799;28;20510;-75
2023/05/07 08:16:54;;;;;;;10.70;5.13;;;19.70;67.00;;;;;;5050487;28;20952;-77
2023/05/07 08:19:21;;;;;;;13.33;5.83;;;20.10;66.40;;;;;;5031948;28;20180;-74
2023/05/07 08:21:47;;;;;;;7.30;5.33;;;20.30;65.60;;;;;;5047985;28;20497;-74
2023/05/07 08:24:14;;;;;;;7.67;5.70;;;20.10;66.00;;;;;;5051488;28;20467;-75
2023/05/07 08:26:40;;;;;;;6.53;5.50;;;20.00;66.40;;;;;;5051172;28;20425;-72
2023/05/07 08:29:05;;;;;;;8.90;5.33;;;19.90;66.30;;;;;;5050330;28;20421;-76
2023/05/07 08:31:31;;;;;;;6.90;4.93;;;20.20;66.00;;;;;;5046768;28;20236;-72
2023/05/07 08:34:00;;;;;;;8.90;4.63;;;20.50;65.30;;;;;;5050351;28;20186;-75
2023/05/07 08:36:26;;;;;;;5.70;5.13;;;20.60;65.10;;;;;;5051193;28;20212;-75
2023/05/07 08:38:52;;;;;;;8.20;4.97;;;20.80;64.80;;;;;;5051506;28;20455;-77
2023/05/07 08:41:18;;;;;;;5.40;4.40;;;20.80;64.80;;;;;;5049130;28;20475;-75
2023/05/07 08:43:49;;;;;;;8.17;4.33;;;21.00;64.80;;;;;;5050499;28;20499;-74
2023/05/07 08:46:19;;;;;;;8.17;4.50;;;21.10;64.70;;;;;;5051506;28;20420;-77
2023/05/07 08:48:47;;;;;;;7.10;5.10;;;21.10;65.10;;;;;;5050367;28;20436;-74
2023/05/07 08:51:15;;;;;;;7.07;4.67;;;21.20;64.70;;;;;;5031047;28;20972;-75
2023/05/07 08:53:41;;;;;;;5.37;4.00;;;21.30;65.30;;;;;;5050392;28;20437;-75
2023/05/07 08:56:09;;;;;;;6.00;4.30;;;21.40;64.20;;;;;;5051038;28;20435;-75
2023/05/07 08:58:34;;;;;;;12.30;4.57;;;21.50;64.10;;;;;;5049895;28;20456;-74
2023/05/07 09:01:08;;;;;;;5.27;4.40;;;21.50;64.20;;;;;;5047959;28;20604;-76
2023/05/07 09:03:34;;;;;;;5.53;4.47;;;21.70;63.80;;;;;;5050450;28;20350;-76
2023/05/07 09:05:59;;;;;;;6.30;4.60;;;21.80;63.80;;;;;;5049891;28;20513;-74
2023/05/07 09:08:26;;;;;;;7.00;4.43;;;21.90;63.50;;;;;;5049855;28;20187;-76
2023/05/07 09:10:52;;;;;;;6.87;4.57;;;22.00;63.20;;;;;;5043709;28;20337;-75
2023/05/07 09:13:18;;;;;;;5.80;3.70;;;21.80;63.40;;;;;;5050007;28;20507;-72
2023/05/07 09:15:43;;;;;;;6.70;4.60;;;21.80;63.70;;;;;;5049274;28;20249;-75
2023/05/07 09:18:09;;;;;;;4.33;3.80;;;22.00;63.40;;;;;;5050298;28;20545;-72
2023/05/07 09:20:37;;;;;;;6.03;4.10;;;21.90;63.70;;;;;;5043977;28;20221;-77
2023/05/07 09:23:02;;;;;;;5.27;4.17;;;22.10;63.40;;;;;;5049556;28;20211;-76
2023/05/07 09:25:32;;;;;;;10.63;8.20;;;22.10;62.90;;;;;;5050096;28;20426;-76
2023/05/07 09:27:58;;;;;;;5.30;3.97;;;22.10;63.40;;;;;;5033016;28;20793;-76
2023/05/07 09:30:29;;;;;;;5.27;3.83;;;22.20;62.90;;;;;;5045220;28;21033;-76
2023/05/07 09:32:54;;;;;;;5.03;4.30;;;22.40;62.60;;;;;;5034091;28;20432;-76
2023/05/07 09:35:27;;;;;;;6.00;4.10;;;22.10;62.20;;;;;;5052860;28;20420;-78
2023/05/07 09:37:54;;;;;;;6.70;4.33;;;22.30;62.80;;;;;;5052536;28;20185;-76
2023/05/07 09:40:24;;;;;;;5.73;4.03;;;22.40;62.30;;;;;;5029457;28;20460;-75
2023/05/07 09:42:50;;;;;;;4.70;3.50;;;22.50;62.00;;;;;;5050769;28;20476;-77
2023/05/07 09:45:24;;;;;;;7.57;4.03;;;22.50;62.20;;;;;;5050514;28;20443;-78
2023/05/07 09:47:55;;;;;;;6.63;3.70;;;22.40;61.50;;;;;;5051170;28;20469;-75
2023/05/07 09:50:29;;;;;;;4.30;3.70;;;22.50;61.70;;;;;;5048550;28;20458;-76
2023/05/07 09:52:56;;;;;;;4.50;3.30;;;22.60;61.60;;;;;;5045924;28;21016;-77
2023/05/07 09:55:22;;;;;;;5.03;3.50;;;22.80;61.20;;;;;;5052496;28;20782;-77
2023/05/07 09:57:52;;;;;;;7.33;3.73;;;22.80;60.40;;;;;;5051342;28;20673;-78
2023/05/07 10:00:22;;;;;;;3.37;3.20;;;22.90;60.70;;;;;;5049744;28;20924;-77
2023/05/07 10:02:51;;;;;;;6.63;3.30;;;23.20;60.30;;;;;;5045471;28;20463;-75
2023/05/07 10:05:18;;;;;;;6.00;3.67;;;23.60;59.20;;;;;;5051267;28;20411;-76
2023/05/07 10:07:44;;;;;;;4.03;3.03;;;23.80;58.80;;;;;;5051203;28;20439;-77
2023/05/07 10:10:11;;;;;;;4.07;3.60;;;24.10;57.30;;;;;;5038310;28;20459;-77
2023/05/07 10:12:38;;;;;;;6.20;3.90;;;24.40;56.60;;;;;;5050336;28;20431;-77
2023/05/07 10:15:07;;;;;;;5.20;3.60;;;24.70;56.40;;;;;;5050891;28;20424;-77
2023/05/07 10:17:38;;;;;;;4.47;3.67;;;24.70;56.60;;;;;;5050763;28;20434;-77
2023/05/07 10:20:05;;;;;;;7.07;3.60;;;24.80;56.10;;;;;;5046100;28;20967;-77
2023/05/07 10:22:46;;;;;;;5.47;3.63;;;25.10;56.20;;;;;;5051939;28;20524;-78
2023/05/07 10:25:25;;;;;;;4.47;3.70;;;25.10;54.80;;;;;;5050840;28;20512;-76
2023/05/07 10:27:53;;;;;;;4.70;3.67;;;25.20;54.90;;;;;;5054364;28;20422;-77
2023/05/07 10:30:40;;;;;;;4.97;3.93;;;25.20;55.00;;;;;;5055664;28;20548;-77
2023/05/07 10:33:08;;;;;;;5.63;3.90;;;25.60;53.40;;;;;;5059910;28;20421;-76
2023/05/07 10:35:58;;;;;;;3.97;3.50;;;26.00;52.80;;;;;;5056047;28;20864;-76
2023/05/07 10:38:25;;;;;;;5.30;3.70;;;26.30;52.40;;;;;;5056671;28;20851;-78
2023/05/07 10:40:51;;;;;;;5.77;3.90;;;26.30;51.80;;;;;;5051144;28;20462;-77
2023/05/07 10:43:17;;;;;;;7.87;4.80;;;26.60;51.20;;;;;;5056975;28;20516;-78
2023/05/07 10:45:42;;;;;;;5.10;4.30;;;26.70;51.00;;;;;;5062348;28;20425;-76
2023/05/07 10:48:16;;;;;;;5.93;4.17;;;26.20;52.40;;;;;;5057904;28;20190;-76
2023/05/07 10:50:43;;;;;;;4.93;3.80;;;25.80;53.60;;;;;;5038413;28;20229;-78
2023/05/07 10:53:17;;;;;;;6.63;3.93;;;25.60;53.60;;;;;;5058731;28;20420;-77
2023/05/07 10:55:50;;;;;;;6.37;4.30;;;25.60;54.10;;;;;;5061779;28;20425;-77
2023/05/07 10:58:21;;;;;;;7.30;4.27;;;25.70;54.40;;;;;;5057186;28;20432;-78
2023/05/07 11:00:48;;;;;;;5.63;3.97;;;25.90;52.90;;;;;;5052678;28;20454;-79
2023/05/07 11:03:14;;;;;;;8.90;4.40;;;25.60;52.90;;;;;;5038398;28;20466;-79
2023/05/07 11:05:41;;;;;;;6.33;3.87;;;25.10;54.90;;;;;;5055803;28;20430;-78
2023/05/07 11:08:08;;;;;;;5.57;3.80;;;25.40;54.20;;;;;;5038321;28;20421;-76
2023/05/07 11:10:58;;;;;;;8.30;4.07;;;25.70;52.50;;;;;;5036877;28;20475;-76
2023/05/07 11:13:56;;;;;;;3.97;3.60;;;25.30;52.90;;;;;;5054653;28;20427;-77
2023/05/07 11:16:23;;;;;;;6.87;3.37;;;25.30;52.10;;;;;;4938585;29;20578;-76
2023/05/07 11:18:50;;;;;;;5.20;3.83;;;25.40;51.60;;;;;;4938190;28;20430;-77
2023/05/07 11:21:39;;;;;;;4.20;3.20;;;25.10;51.60;;;;;;4953160;28;20558;-77
2023/05/07 11:24:07;;;;;;;3.63;3.47;;;25.30;51.80;;;;;;4954525;28;20906;-77
2023/05/07 11:26:50;;;;;;;4.17;3.67;;;25.40;51.00;;;;;;4939178;29;20464;-77
2023/05/07 11:29:21;;;;;;;5.17;3.10;;;25.10;50.10;;;;;;4956093;28;20500;-74
2023/05/07 11:31:54;;;;;;;5.80;3.47;;;25.20;49.70;;;;;;4954616;28;20453;-78
2023/05/07 11:34:25;;;;;;;4.70;3.10;;;24.80;50.70;;;;;;4953990;28;20827;-78
2023/05/07 11:36:51;;;;;;;9.73;3.40;;;25.00;50.10;;;;;;4955720;29;20950;-79
2023/05/07 11:39:33;;;;;;;7.10;3.83;;;25.00;49.90;;;;;;4955324;28;20442;-74
2023/05/07 11:42:02;;;;;;;4.90;3.57;;;24.90;50.60;;;;;;4950943;28;20496;-79
2023/05/07 11:44:49;;;;;;;4.37;3.30;;;24.90;50.60;;;;;;4956039;29;20575;-77
2023/05/07 11:47:18;;;;;;;3.50;2.67;;;24.80;50.30;;;;;;4956885;28;20523;-80
2023/05/07 11:49:48;;;;;;;4.80;3.87;;;24.70;51.00;;;;;;4955830;28;20722;-78
2023/05/07 11:52:14;;;;;;;7.30;4.07;;;24.50;53.40;;;;;;5018315;28;20846;-78
2023/05/07 11:54:39;;;;;;;4.43;3.80;;;24.00;55.40;;;;;;5056509;28;20534;-78
2023/05/07 11:57:07;;;;;;;4.40;4.00;;;24.00;56.50;;;;;;5056836;28;20455;-77
2023/05/07 11:59:44;;;;;;;4.93;3.77;;;23.60;57.40;;;;;;5035040;28;20213;-79
2023/05/07 12:02:10;;;;;;;5.63;5.10;;;23.60;57.30;;;;;;5054040;28;20929;-78
2023/05/07 12:04:35;;;;;;;5.37;4.40;;;23.50;57.40;;;;;;5054668;28;20552;-78
2023/05/07 12:07:01;;;;;;;6.60;4.70;;;23.40;57.60;;;;;;5055747;28;20430;-79
2023/05/07 12:09:27;;;;;;;6.90;4.13;;;23.30;57.60;;;;;;5053128;28;20203;-79
2023/05/07 12:11:52;;;;;;;8.17;4.53;;;23.10;58.40;;;;;;5046991;28;20184;-78
2023/05/07 12:14:18;;;;;;;5.70;4.30;;;23.00;59.70;;;;;;5051430;28;20185;-76
2023/05/07 12:16:45;;;;;;;6.33;4.73;;;22.60;62.30;;;;;;5036580;28;20216;-77
2023/05/07 12:19:14;;;;;;;7.87;5.20;;;22.40;64.80;;;;;;5036704;28;20231;-78
2023/05/07 12:21:40;;;;;;;5.40;3.13;;;22.20;66.40;;;;;;5035426;28;20535;-79
2023/05/07 12:24:06;;;;;;;6.37;4.60;;;22.10;64.20;;;;;;5054830;28;20474;-78
2023/05/07 12:26:31;;;;;;;7.80;4.10;;;21.70;67.60;;;;;;5038379;28;20426;-78
2023/05/07 12:28:57;;;;;;;13.10;3.83;;;21.30;67.70;;;;;;5038740;28;20186;-78
2023/05/07 12:31:26;;;;;;;5.43;4.00;;;20.70;69.40;;;;;;5054901;28;20207;-77
2023/05/07 12:33:51;;;;;;;9.37;4.37;;;20.30;70.40;;;;;;5059361;28;20519;-76
2023/05/07 12:36:18;;;;;;;12.40;4.93;;;19.60;71.70;;;;;;5058874;28;20447;-78
2023/05/07 12:38:44;;;;;;;9.40;5.13;;;18.80;75.70;;;;;;5057268;28;20191;-77
2023/05/07 12:41:12;;;;;;;7.57;3.90;;;18.30;78.60;;;;;;5049124;28;20462;-78
2023/05/07 12:43:38;;;;;;;7.60;5.00;;;17.80;79.30;;;;;;5058971;28;20213;-78
2023/05/07 12:46:07;;;;;;;23.93;6.70;;;17.40;81.50;;;;;;5058538;28;20415;-77